Otterbein, IN (47970)

8:35 AM EDT on July 23, 2014 (GMT -0400)
Pine View Farms (KINWESTL11) Elev 696 ft | 40.47 °N, 86.95 °W | Change Station

Current weather conditions updated 3 seconds ago

Clear
Clear
70.6 °F
Feels Like 70.6 °F
N
1.1
Wind Variable Wind from NNE
Gusts 6.3 mph

Today is forecast to be Much Cooler than yesterday. Morning thunderstorms.

Today
High -- | Low -- °F
--% Chance of Precip.
Yesterday
High -- | Low -- °F
Precip. -- in
6:37 AM 9:11 PM
Waning Crescent, 11% visible
Pressure 30.04 in
Visibility 4.0 miles
Clouds Mostly Cloudy 600 ft
Overcast 1400 ft
Dew Point 67 °F
Humidity 88%
Rainfall 0.00 in
Snow Depth Not available.
UV 0 out of 12
Pollen 5.40 out of 12
Air Quality Not available.
Flu Activity Not available.
SPECI KLAF 231208Z 36011KT 4SM BR BKN006 OVC014 21/20 A3004 RMK AO2 T02110200

More Conditions Fewer Conditions

Pressure 30.04 in
Visibility 4.0 miles
Clouds Mostly Cloudy 600 ft
Overcast 1400 ft
Dew Point 67 °F
Humidity 88%
Rainfall 0.00 in
Snow Depth Not available.
UV 0 out of 12
Pollen 5.40 out of 12
Air Quality Not available.
Flu Activity Not available.
SPECI KLAF 231208Z 36011KT 4SM BR BKN006 OVC014 21/20 A3004 RMK AO2 T02110200

More Conditions Fewer Conditions

10-Day Weather Forecast

Almanac

Astronomy

Jul. 23, 2014 Rise Set
Actual Time 6:37 AM EDT 9:11 PM EDT
Civil Twilight 6:05 AM EDT 9:43 PM EDT
Nautical Twilight 5:26 AM EDT 10:22 PM EDT
Astronomical Twilight 4:42 AM EDT 11:06 PM EDT
Moon 3:56 AM EDT 6:40 PM EDT
Length of Visible Light 15h 37m
Length of Day
14h 34m
Tomorrow will be 1m 44s shorter.
Waning Crescent, 11% of the Moon is Illuminated
Today
Waning Crescent
Jul 26
New
Aug 3
First Quarter
Aug 10
Full
Aug 17
Last Quarter

Today's Extremes

State Highs State Lows

Community

WunderPhotos

Upload Photos

1,736,580 photos uploaded!

Nearby

Snow Depth

Station Depth Elevation
No new snow has been reported.

Earthquake Activity

City Distance Mag. Time & Date
No recent earthquake activity has been reported nearby.
Minimum magnitude displayed is 2.5.

Coastal Water Temperatures

Place Temperature
No Stations Reporting

Nearby Weather Stations

Station Location Temp. Dew Point Humidity Wind Precip. Elev Updated Type
Pine View Farms, West Lafayette, IN 70.6 °F 67 °F 88% NNE  at  1.1 mph 0.00 in / hr 696 ft 8:34 AM EDT Rapid Fire
Oxford, Oxford, IN 66.9 °F 63 °F 88% North  at  6.0 mph 0.00 in / hr 732 ft 8:31 AM EDT Normal
Prophet's Ridge, West Lafayette, IN 68.3 °F 66 °F 92% NNE  at  4.0 mph 0.00 in / hr 679 ft 8:34 AM EDT Normal
Warren County, IN, Attica, IN 68.7 °F 67 °F 95% WNW  at  3.0 mph 0.00 in / hr 615 ft 8:30 AM EDT Normal
Romney, IN 72.2 °F 72 °F 99% NE  at  3.0 mph - / hr 738 ft 8:22 AM EDT Normal
Pettit, IN 47905, Lafayette, IN 70.7 °F 69 °F 94% NW  at  4.3 mph - / hr 682 ft 8:34 AM EDT Normal

Show More Stations Show Fewer Stations